createdAt,value
2022-10-03T00:09:46.752Z,98310.41
2022-10-03T00:19:59.648Z,98312.65
2022-10-03T00:30:14.869Z,98308.31
2022-10-03T00:41:02.612Z,98302.89
2022-10-03T00:51:26.363Z,98299.03
2022-10-03T01:01:34.583Z,98294.06
2022-10-03T01:11:42.571Z,98292.77
2022-10-03T01:22:05.620Z,98290.48
2022-10-03T01:32:14.043Z,98286.11
2022-10-03T01:42:30.483Z,98284.66
2022-10-03T01:52:37.764Z,98285.23
2022-10-03T02:02:44.055Z,98291.04
2022-10-03T02:12:54.559Z,98295.58
2022-10-03T02:23:02.497Z,98294.09
2022-10-03T02:33:44.649Z,98296.55
2022-10-03T02:44:18.633Z,98297.03
2022-10-03T02:55:05.923Z,98295.41
2022-10-03T03:05:43.998Z,98293.06
2022-10-03T03:16:15.178Z,98287.48
2022-10-03T03:26:41.968Z,98280.13
2022-10-03T03:36:46.641Z,98282.15
2022-10-03T03:46:58.059Z,98278.96
2022-10-03T03:57:16.276Z,98273.90
2022-10-03T04:07:32.226Z,98276.77
2022-10-03T04:17:59.754Z,98276.12
2022-10-03T04:28:33.273Z,98282.04
2022-10-03T04:38:42.442Z,98281.42
2022-10-03T04:48:51.034Z,98280.80
2022-10-03T04:59:05.259Z,98285.70
2022-10-03T05:09:15.076Z,98276.64
2022-10-03T05:19:56.071Z,98278.48
2022-10-03T05:30:04.933Z,98282.70
2022-10-03T05:40:08.919Z,98290.81
2022-10-03T05:50:35.111Z,98295.17
2022-10-03T06:00:53.613Z,98299.81
2022-10-03T06:11:02.981Z,98304.83
2022-10-03T06:21:18.353Z,98315.22
2022-10-03T06:31:57.022Z,98318.37
2022-10-03T06:42:37.833Z,98324.13
2022-10-03T06:52:56.667Z,98329.66
2022-10-03T07:03:39.964Z,98332.85
2022-10-03T07:14:06.121Z,98343.65
2022-10-03T07:24:27.920Z,98347.06
2022-10-03T07:34:59.897Z,98356.04
2022-10-03T07:45:43.664Z,98364.85
2022-10-03T07:55:58.519Z,98366.23
2022-10-03T08:06:21.463Z,98352.16
2022-10-03T08:16:31.096Z,98336.84
2022-10-03T08:26:59.743Z,98333.89
2022-10-03T08:37:23.404Z,98341.35
2022-10-03T08:47:50.288Z,98344.97
2022-10-03T08:58:14.729Z,98351.77
2022-10-03T09:08:52.499Z,98354.78
2022-10-03T09:19:18.283Z,98356.92
2022-10-03T09:29:50.719Z,98359.42
2022-10-03T09:40:38.613Z,98371.02
2022-10-03T09:51:03.598Z,98376.33
2022-10-03T10:01:20.573Z,98381.15
2022-10-03T10:11:35.062Z,98387.96
2022-10-03T10:22:17.003Z,98386.77
2022-10-03T10:32:53.788Z,98390.41
2022-10-03T10:43:34.411Z,98396.64
2022-10-03T10:54:14.054Z,98400.98
2022-10-03T11:04:54.025Z,98400.27
2022-10-03T11:15:47.917Z,98394.30
2022-10-03T11:26:39.906Z,98398.39
2022-10-03T11:37:09.727Z,98414.34
2022-10-03T11:47:41.730Z,98421.79
2022-10-03T11:57:47.383Z,98423.96
2022-10-03T12:08:11.462Z,98428.52
2022-10-03T12:18:17.144Z,98429.70
2022-10-03T12:28:27.464Z,98433.59
2022-10-03T12:38:38.274Z,98434.88
2022-10-03T12:48:48.067Z,98440.58
2022-10-03T12:59:14.585Z,98443.83
2022-10-03T13:09:33.179Z,98442.88
2022-10-03T13:19:42.844Z,98450.80
2022-10-03T13:29:50.379Z,98462.70
2022-10-03T13:40:03.604Z,98474.94
2022-10-03T13:50:16.886Z,98476.16
2022-10-03T14:00:26.857Z,98486.81
2022-10-03T14:10:51.091Z,98498.59
2022-10-03T14:21:32.963Z,98495.77
2022-10-03T14:31:46.654Z,98498.61
2022-10-03T14:42:14.464Z,98508.61
2022-10-03T14:52:21.704Z,98517.67
2022-10-03T15:02:30.426Z,98523.97
2022-10-03T15:12:42.659Z,98522.44
2022-10-03T15:23:00.732Z,98539.17
2022-10-03T15:33:07.454Z,98547.49
2022-10-03T15:43:24.218Z,98554.15
2022-10-03T15:53:37.278Z,98556.84
2022-10-03T16:03:48.552Z,98569.20
2022-10-03T16:14:00.609Z,98581.55
2022-10-03T16:24:08.817Z,98594.65
2022-10-03T16:44:25.130Z,98593.45
2022-10-03T16:54:33.613Z,98603.55
2022-10-03T17:04:43.713Z,98607.09
2022-10-03T17:14:54.112Z,98602.88
2022-10-03T17:25:18.211Z,98601.20
2022-10-03T17:35:23.621Z,98603.34
2022-10-03T17:45:40.856Z,98616.70
2022-10-03T17:55:50.084Z,98630.67
2022-10-03T18:06:04.454Z,98638.69
2022-10-03T18:16:21.627Z,98641.76
2022-10-03T18:26:30.093Z,98642.23
2022-10-03T18:36:35.105Z,98645.90
2022-10-03T18:46:43.335Z,98647.53
2022-10-03T18:57:02.606Z,98658.44
2022-10-03T19:07:12.640Z,98660.65
2022-10-03T19:17:25.856Z,98662.35
2022-10-03T19:27:40.828Z,98669.89
2022-10-03T19:37:51.397Z,98675.02
2022-10-03T19:48:02.829Z,98675.55
2022-10-03T19:58:23.841Z,98668.78
2022-10-03T20:08:30.424Z,98666.45
2022-10-03T20:18:38.473Z,98664.06
2022-10-03T20:29:06.549Z,98665.01
2022-10-03T20:39:13.209Z,98664.66
2022-10-03T20:49:24.073Z,98653.68
2022-10-03T20:59:30.824Z,98658.20
2022-10-03T21:29:55.091Z,98667.25
2022-10-03T21:40:07.872Z,98673.80
2022-10-03T21:50:18.324Z,98670.45
2022-10-03T22:00:25.785Z,98663.11
2022-10-03T22:10:40.748Z,98671.30
2022-10-03T22:20:49.055Z,98671.77
2022-10-03T22:30:55.087Z,98670.70
2022-10-03T22:41:05.515Z,98670.64
2022-10-03T22:51:16.269Z,98660.46
2022-10-03T23:01:22.658Z,98657.42
2022-10-03T23:11:32.223Z,98648.70
2022-10-03T23:21:44.902Z,98647.55
2022-10-03T23:31:50.641Z,98648.30
2022-10-03T23:42:01.049Z,98647.52
2022-10-03T23:52:11.539Z,98646.94
